createdAt,value
2022-12-25T00:04:08.398Z,19.25
2022-12-25T00:09:06.654Z,15.82
2022-12-25T00:14:04.759Z,14.20
2022-12-25T00:19:01.838Z,15.15
2022-12-25T00:23:59.871Z,16.25
2022-12-25T00:28:58.201Z,13.38
2022-12-25T00:33:56.114Z,14.23
2022-12-25T00:38:54.883Z,13.98
2022-12-25T00:43:51.909Z,12.45
2022-12-25T00:48:48.874Z,13.57
2022-12-25T00:53:47.022Z,14.32
2022-12-25T00:58:44.113Z,13.02
2022-12-25T01:03:41.305Z,13.20
2022-12-25T01:09:00.261Z,14.60
2022-12-25T01:13:58.377Z,16.02
2022-12-25T01:18:55.855Z,16.15
2022-12-25T01:23:53.606Z,16.48
2022-12-25T01:28:54.252Z,18.70
2022-12-25T01:33:52.257Z,16.20
2022-12-25T01:38:50.303Z,17.75
2022-12-25T01:44:00.210Z,15.05
2022-12-25T01:49:05.187Z,13.98
2022-12-25T01:54:05.735Z,17.63
2022-12-25T01:59:04.591Z,12.65
2022-12-25T02:04:08.920Z,14.40
2022-12-25T02:09:06.189Z,12.93
2022-12-25T02:14:03.358Z,16.20
2022-12-25T02:19:11.362Z,18.20
2022-12-25T02:24:41.975Z,15.48
2022-12-25T02:29:48.137Z,18.52
2022-12-25T02:34:52.074Z,14.80
2022-12-25T02:40:01.775Z,17.27
2022-12-25T02:45:17.921Z,19.27
2022-12-25T02:50:34.186Z,18.17
2022-12-25T02:55:55.307Z,17.58
2022-12-25T03:01:26.088Z,17.30
2022-12-25T03:06:44.249Z,19.50
2022-12-25T03:11:45.765Z,17.17
2022-12-25T03:16:53.234Z,17.60
2022-12-25T03:22:08.585Z,16.30
2022-12-25T03:27:05.590Z,17.57
2022-12-25T03:32:35.063Z,20.00
2022-12-25T03:38:12.067Z,19.83
2022-12-25T03:43:42.767Z,21.77
2022-12-25T03:49:20.468Z,19.90
2022-12-25T03:54:41.809Z,22.35
2022-12-25T04:00:00.166Z,22.52
2022-12-25T04:05:15.971Z,21.65
2022-12-25T04:10:31.236Z,20.83
2022-12-25T04:15:46.830Z,23.50
2022-12-25T04:21:01.815Z,21.25
2022-12-25T04:26:17.216Z,23.75
2022-12-25T04:31:32.181Z,20.23
2022-12-25T04:36:30.239Z,23.58
2022-12-25T04:41:27.326Z,24.27
2022-12-25T04:46:24.610Z,24.85
2022-12-25T04:51:24.940Z,23.23
2022-12-25T04:56:23.262Z,20.27
2022-12-25T05:01:20.407Z,21.42
2022-12-25T05:06:17.591Z,22.08
2022-12-25T05:11:16.316Z,22.38
2022-12-25T05:16:16.369Z,20.92
2022-12-25T05:21:13.818Z,22.58
2022-12-25T05:26:10.723Z,19.00
2022-12-25T05:31:07.694Z,19.85
2022-12-25T05:36:07.552Z,20.38
2022-12-25T05:41:05.255Z,21.50
2022-12-25T05:46:06.141Z,24.05
2022-12-25T05:51:08.982Z,22.10
2022-12-25T05:56:07.982Z,21.73
2022-12-25T06:01:10.800Z,20.02
2022-12-25T06:06:08.807Z,21.30
2022-12-25T06:11:07.854Z,19.90
2022-12-25T06:16:05.983Z,19.48
2022-12-25T06:21:07.327Z,20.33
2022-12-25T06:26:20.391Z,21.80
2022-12-25T06:31:19.986Z,17.98
2022-12-25T06:36:20.092Z,21.77
2022-12-25T06:41:19.509Z,22.38
2022-12-25T06:46:17.135Z,17.50
2022-12-25T06:51:14.739Z,19.15
2022-12-25T06:56:14.975Z,20.27
2022-12-25T07:01:18.934Z,18.58
2022-12-25T07:06:17.126Z,16.58
2022-12-25T07:11:14.213Z,17.48
2022-12-25T07:16:12.622Z,15.98
2022-12-25T07:21:12.396Z,14.65
2022-12-25T07:26:10.997Z,19.67
2022-12-25T07:31:14.462Z,17.42
2022-12-25T07:36:20.671Z,17.92
2022-12-25T07:41:18.067Z,15.43
2022-12-25T07:46:15.126Z,17.45
2022-12-25T07:51:14.658Z,16.20
2022-12-25T07:56:13.791Z,17.85
2022-12-25T08:01:13.506Z,17.38
2022-12-25T08:06:11.518Z,24.85
2022-12-25T08:11:14.370Z,15.45
2022-12-25T08:16:11.518Z,15.63
2022-12-25T08:21:10.739Z,19.88
2022-12-25T08:26:11.801Z,17.70
2022-12-25T08:31:11.194Z,20.08
2022-12-25T08:36:11.366Z,16.08
2022-12-25T08:41:09.807Z,17.67
2022-12-25T08:46:07.010Z,16.38
2022-12-25T08:51:05.286Z,16.15
2022-12-25T08:56:05.872Z,17.58
2022-12-25T09:01:04.507Z,16.42
2022-12-25T09:06:03.727Z,16.48
2022-12-25T09:11:02.355Z,16.48
2022-12-25T09:16:00.482Z,19.70
2022-12-25T09:21:01.716Z,17.73
2022-12-25T09:26:03.684Z,14.00
2022-12-25T09:31:02.598Z,17.50
2022-12-25T09:36:01.734Z,17.52
2022-12-25T09:41:01.446Z,16.23
2022-12-25T09:46:00.379Z,15.18
2022-12-25T09:51:03.305Z,17.02
2022-12-25T09:56:15.093Z,16.83
2022-12-25T10:01:34.114Z,14.85
2022-12-25T10:06:54.204Z,15.43
2022-12-25T10:12:09.420Z,16.25
2022-12-25T10:17:29.490Z,17.95
2022-12-25T10:22:34.483Z,18.45
2022-12-25T10:27:35.464Z,21.67
2022-12-25T10:32:36.761Z,18.98
2022-12-25T10:37:34.995Z,20.05
2022-12-25T10:42:46.292Z,16.83
2022-12-25T10:47:46.021Z,18.40
2022-12-25T10:52:56.768Z,17.70
2022-12-25T10:57:54.631Z,18.33
2022-12-25T11:02:55.208Z,17.60
2022-12-25T11:07:56.401Z,15.75
2022-12-25T11:13:05.429Z,15.25
2022-12-25T11:18:03.140Z,17.27
2022-12-25T11:23:01.038Z,14.50
2022-12-25T11:28:04.474Z,17.70
2022-12-25T11:33:05.189Z,15.68
2022-12-25T11:38:03.660Z,15.32
2022-12-25T11:43:08.347Z,12.52
2022-12-25T11:48:17.999Z,15.97
2022-12-25T11:53:23.303Z,14.95
2022-12-25T11:58:25.891Z,15.13
2022-12-25T12:03:28.331Z,15.07
2022-12-25T12:08:28.041Z,15.70
2022-12-25T12:13:43.924Z,16.58
2022-12-25T12:18:46.576Z,13.85
2022-12-25T12:23:53.766Z,17.83
2022-12-25T12:28:58.434Z,16.60
2022-12-25T12:33:58.432Z,21.73
2022-12-25T12:38:58.552Z,24.70
2022-12-25T12:44:03.451Z,24.63
2022-12-25T12:49:17.210Z,22.10
2022-12-25T12:54:22.637Z,23.15
2022-12-25T12:59:19.583Z,18.05
2022-12-25T13:04:57.784Z,15.10
2022-12-25T13:10:07.648Z,18.98
2022-12-25T13:15:12.296Z,12.80
2022-12-25T13:20:22.427Z,12.97
2022-12-25T13:25:22.197Z,17.25
2022-12-25T13:30:21.978Z,21.38
2022-12-25T13:35:23.270Z,14.23
2022-12-25T13:40:30.839Z,14.75
2022-12-25T13:45:30.021Z,15.02
2022-12-25T13:50:31.894Z,15.02
2022-12-25T13:55:29.975Z,20.75
2022-12-25T14:00:34.933Z,17.30
2022-12-25T14:05:41.616Z,16.30
2022-12-25T14:10:41.642Z,17.02
2022-12-25T14:15:40.234Z,15.40
2022-12-25T14:20:40.906Z,14.07
2022-12-25T14:25:44.001Z,16.20
2022-12-25T14:30:42.834Z,22.52
2022-12-25T14:35:39.764Z,15.70
2022-12-25T14:40:37.133Z,15.40
2022-12-25T14:45:37.976Z,16.65
2022-12-25T14:50:39.031Z,18.38
2022-12-25T14:55:37.589Z,17.00
2022-12-25T15:00:40.862Z,23.05
2022-12-25T15:05:40.682Z,17.65
2022-12-25T15:15:59.690Z,22.42
2022-12-25T15:20:56.598Z,23.55
2022-12-25T15:25:53.427Z,18.52
2022-12-25T15:30:50.282Z,21.58
2022-12-25T15:35:48.404Z,21.50
2022-12-25T15:40:46.802Z,26.42
2022-12-25T15:45:44.885Z,19.48
2022-12-25T15:50:43.601Z,22.08
2022-12-25T15:55:41.473Z,18.75
2022-12-25T16:00:38.340Z,37.38
2022-12-25T16:05:35.605Z,36.08
2022-12-25T16:10:43.498Z,32.80
2022-12-25T16:15:40.768Z,29.95
2022-12-25T16:20:38.027Z,35.35
2022-12-25T16:25:34.818Z,38.40
2022-12-25T16:30:32.568Z,43.60
2022-12-25T16:35:29.545Z,43.63
2022-12-25T16:40:26.903Z,44.42
2022-12-25T16:45:23.959Z,36.67
2022-12-25T16:50:23.225Z,40.55
2022-12-25T16:55:29.673Z,35.58
2022-12-25T17:00:27.203Z,34.42
2022-12-25T17:05:24.932Z,36.97
2022-12-25T17:10:22.134Z,35.42
2022-12-25T17:15:21.598Z,39.30
2022-12-25T17:20:28.475Z,35.58
2022-12-25T17:25:26.883Z,32.13
2022-12-25T17:30:23.933Z,31.27
2022-12-25T17:35:22.836Z,32.55
2022-12-25T17:40:22.190Z,33.20
2022-12-25T17:45:22.129Z,33.83
2022-12-25T17:50:19.078Z,32.33
2022-12-25T17:55:18.103Z,27.45
2022-12-25T18:00:16.150Z,27.40
2022-12-25T18:05:13.985Z,24.63
2022-12-25T18:10:11.343Z,23.48
2022-12-25T18:15:11.764Z,24.33
2022-12-25T18:20:09.639Z,21.17
2022-12-25T18:25:08.240Z,20.00
2022-12-25T18:30:12.445Z,22.67
2022-12-25T18:35:11.313Z,23.27
2022-12-25T18:40:09.992Z,24.77
2022-12-25T18:45:09.432Z,24.48
2022-12-25T18:50:08.575Z,24.98
2022-12-25T18:55:06.782Z,23.42
2022-12-25T19:00:05.476Z,20.13
2022-12-25T19:05:02.768Z,21.27
2022-12-25T19:09:59.781Z,27.70
2022-12-25T19:14:59.544Z,23.00
2022-12-25T19:19:57.390Z,26.63
2022-12-25T19:24:54.557Z,24.15
2022-12-25T19:29:51.680Z,23.48
2022-12-25T19:34:48.805Z,25.80
2022-12-25T19:39:46.745Z,23.98
2022-12-25T19:44:44.241Z,22.58
2022-12-25T19:49:57.361Z,22.45
2022-12-25T19:54:58.792Z,24.42
2022-12-25T19:59:56.208Z,26.20
2022-12-25T20:04:53.221Z,27.58
2022-12-25T20:09:50.183Z,25.67
2022-12-25T20:14:48.797Z,24.33
2022-12-25T20:19:45.894Z,24.33
2022-12-25T20:24:43.089Z,26.00
2022-12-25T20:29:43.312Z,27.58
2022-12-25T20:34:41.258Z,22.60
2022-12-25T20:39:38.635Z,22.50
2022-12-25T20:44:35.704Z,30.10
2022-12-25T20:49:34.168Z,28.30
2022-12-25T20:54:31.912Z,27.63
2022-12-25T20:59:33.592Z,32.60
2022-12-25T21:04:34.325Z,31.80
2022-12-25T21:09:33.043Z,29.90
2022-12-25T21:14:30.055Z,26.63
2022-12-25T21:19:27.377Z,30.08
2022-12-25T21:24:25.524Z,28.08
2022-12-25T21:29:23.883Z,29.38
2022-12-25T21:34:23.161Z,28.67
2022-12-25T21:39:20.022Z,37.38
2022-12-25T21:44:16.820Z,32.22
2022-12-25T21:49:36.817Z,33.47
2022-12-25T21:54:34.445Z,30.75
2022-12-25T21:59:31.555Z,55.85
2022-12-25T22:04:29.177Z,30.52
2022-12-25T22:09:26.817Z,44.67
2022-12-25T22:14:52.834Z,32.67
2022-12-25T22:19:51.466Z,40.42
2022-12-25T22:24:50.095Z,42.78
2022-12-25T22:29:48.288Z,46.90
2022-12-25T22:34:45.112Z,49.08
2022-12-25T22:39:43.354Z,43.85
2022-12-25T22:44:40.431Z,44.90
2022-12-25T22:49:37.476Z,38.22
2022-12-25T22:54:37.457Z,38.83
2022-12-25T22:59:35.267Z,37.85
2022-12-25T23:04:37.012Z,37.33
2022-12-25T23:09:34.319Z,34.05
2022-12-25T23:14:39.950Z,38.95
2022-12-25T23:19:55.752Z,40.72
2022-12-25T23:25:10.984Z,38.25
2022-12-25T23:30:10.200Z,37.63
2022-12-25T23:35:09.114Z,31.60
2022-12-25T23:40:07.702Z,30.50
2022-12-25T23:45:05.237Z,24.27
2022-12-25T23:50:02.612Z,22.77
2022-12-25T23:55:00.298Z,28.23
2022-12-25T23:59:57.093Z,25.95
